sensor_id;sensor_type;location;lat;lon;timestamp;pressure;altitude;pressure_sealevel;temperature;humidity
65997;BME280;52765;52.258;21.052;2023-04-03T00:00:34;101175.50;;;2.12;62.14
65997;BME280;52765;52.258;21.052;2023-04-03T00:03:00;101177.94;;;1.99;61.84
65997;BME280;52765;52.258;21.052;2023-04-03T00:05:26;101192.28;;;1.97;61.95
65997;BME280;52765;52.258;21.052;2023-04-03T00:07:52;101195.16;;;1.92;61.38
65997;BME280;52765;52.258;21.052;2023-04-03T00:10:17;101200.00;;;1.84;61.73
65997;BME280;52765;52.258;21.052;2023-04-03T00:12:43;101199.94;;;1.85;62.26
65997;BME280;52765;52.258;21.052;2023-04-03T00:15:10;101194.16;;;1.77;62.07
65997;BME280;52765;52.258;21.052;2023-04-03T00:17:35;101206.13;;;1.69;62.44
65997;BME280;52765;52.258;21.052;2023-04-03T00:20:02;101198.38;;;1.64;62.01
65997;BME280;52765;52.258;21.052;2023-04-03T00:22:28;101209.88;;;1.64;62.41
65997;BME280;52765;52.258;21.052;2023-04-03T00:24:54;101208.09;;;1.65;62.71
65997;BME280;52765;52.258;21.052;2023-04-03T00:27:20;101199.81;;;1.54;61.17
65997;BME280;52765;52.258;21.052;2023-04-03T00:29:45;101198.91;;;1.53;61.78
65997;BME280;52765;52.258;21.052;2023-04-03T00:32:11;101210.41;;;1.54;61.93
65997;BME280;52765;52.258;21.052;2023-04-03T00:34:36;101197.38;;;1.49;61.88
65997;BME280;52765;52.258;21.052;2023-04-03T00:37:02;101207.38;;;1.44;62.21
65997;BME280;52765;52.258;21.052;2023-04-03T00:39:27;101202.22;;;1.41;62.41
65997;BME280;52765;52.258;21.052;2023-04-03T00:41:53;101204.56;;;1.47;61.42
65997;BME280;52765;52.258;21.052;2023-04-03T00:44:21;101203.06;;;1.41;61.74
65997;BME280;52765;52.258;21.052;2023-04-03T00:46:46;101196.75;;;1.44;62.07
65997;BME280;52765;52.258;21.052;2023-04-03T00:49:12;101192.63;;;1.38;61.67
65997;BME280;52765;52.258;21.052;2023-04-03T00:51:40;101192.63;;;1.38;62.25
65997;BME280;52765;52.258;21.052;2023-04-03T00:54:06;101200.94;;;1.48;62.62
65997;BME280;52765;52.258;21.052;2023-04-03T00:56:35;101211.91;;;1.42;61.57
65997;BME280;52765;52.258;21.052;2023-04-03T00:59:14;101206.88;;;1.36;62.04
65997;BME280;52765;52.258;21.052;2023-04-03T01:01:41;101205.84;;;1.21;62.38
65997;BME280;52765;52.258;21.052;2023-04-03T01:06:59;101219.06;;;1.22;62.24
65997;BME280;52765;52.258;21.052;2023-04-03T01:09:28;101222.69;;;1.20;61.17
65997;BME280;52765;52.258;21.052;2023-04-03T01:11:53;101222.22;;;1.11;61.43
65997;BME280;52765;52.258;21.052;2023-04-03T01:14:19;101232.38;;;1.03;62.31
65997;BME280;52765;52.258;21.052;2023-04-03T01:16:54;101240.22;;;1.05;62.12
65997;BME280;52765;52.258;21.052;2023-04-03T01:19:21;101238.88;;;0.96;62.65
65997;BME280;52765;52.258;21.052;2023-04-03T01:24:37;101241.69;;;0.93;62.09
65997;BME280;52765;52.258;21.052;2023-04-03T01:27:08;101243.34;;;0.77;62.33
65997;BME280;52765;52.258;21.052;2023-04-03T01:29:35;101239.25;;;0.69;62.83
65997;BME280;52765;52.258;21.052;2023-04-03T01:32:01;101259.13;;;0.80;62.30
65997;BME280;52765;52.258;21.052;2023-04-03T01:34:28;101247.72;;;0.78;62.33
65997;BME280;52765;52.258;21.052;2023-04-03T01:36:54;101256.47;;;0.80;62.58
65997;BME280;52765;52.258;21.052;2023-04-03T01:39:20;101257.69;;;0.72;62.78
65997;BME280;52765;52.258;21.052;2023-04-03T01:41:50;101255.69;;;0.78;62.66
65997;BME280;52765;52.258;21.052;2023-04-03T01:44:17;101265.50;;;0.76;62.45
65997;BME280;52765;52.258;21.052;2023-04-03T01:46:43;101264.47;;;0.78;62.42
65997;BME280;52765;52.258;21.052;2023-04-03T01:49:09;101261.25;;;0.71;62.64
65997;BME280;52765;52.258;21.052;2023-04-03T01:51:34;101266.50;;;0.73;62.32
65997;BME280;52765;52.258;21.052;2023-04-03T01:54:00;101269.44;;;0.67;63.16
65997;BME280;52765;52.258;21.052;2023-04-03T01:56:25;101266.81;;;0.67;63.02
65997;BME280;52765;52.258;21.052;2023-04-03T01:58:51;101267.59;;;0.69;62.69
65997;BME280;52765;52.258;21.052;2023-04-03T02:01:17;101278.31;;;0.66;63.12
65997;BME280;52765;52.258;21.052;2023-04-03T02:03:43;101280.06;;;0.67;63.38
65997;BME280;52765;52.258;21.052;2023-04-03T02:06:26;101277.53;;;0.64;63.65
65997;BME280;52765;52.258;21.052;2023-04-03T02:08:52;101288.94;;;0.66;62.67
65997;BME280;52765;52.258;21.052;2023-04-03T02:11:17;101285.56;;;0.62;62.57
65997;BME280;52765;52.258;21.052;2023-04-03T02:13:43;101287.63;;;0.55;62.52
65997;BME280;52765;52.258;21.052;2023-04-03T02:16:10;101288.50;;;0.56;62.43
65997;BME280;52765;52.258;21.052;2023-04-03T02:18:36;101296.44;;;0.56;63.22
65997;BME280;52765;52.258;21.052;2023-04-03T02:21:04;101288.69;;;0.51;63.61
65997;BME280;52765;52.258;21.052;2023-04-03T02:23:33;101288.19;;;0.43;63.52
65997;BME280;52765;52.258;21.052;2023-04-03T02:26:12;101284.53;;;0.46;63.77
65997;BME280;52765;52.258;21.052;2023-04-03T02:28:39;101297.94;;;0.43;63.59
65997;BME280;52765;52.258;21.052;2023-04-03T02:31:06;101303.44;;;0.38;63.33
65997;BME280;52765;52.258;21.052;2023-04-03T02:33:32;101293.78;;;0.37;63.62
65997;BME280;52765;52.258;21.052;2023-04-03T02:35:58;101291.50;;;0.28;64.14
65997;BME280;52765;52.258;21.052;2023-04-03T02:38:24;101293.25;;;0.29;64.48
65997;BME280;52765;52.258;21.052;2023-04-03T02:40:50;101305.41;;;0.33;63.50
65997;BME280;52765;52.258;21.052;2023-04-03T02:43:17;101303.97;;;0.26;63.85
65997;BME280;52765;52.258;21.052;2023-04-03T02:45:51;101309.41;;;0.23;64.85
65997;BME280;52765;52.258;21.052;2023-04-03T02:48:26;101303.78;;;0.10;65.25
65997;BME280;52765;52.258;21.052;2023-04-03T02:50:55;101302.78;;;0.12;65.05
65997;BME280;52765;52.258;21.052;2023-04-03T02:53:20;101302.78;;;0.12;64.92
65997;BME280;52765;52.258;21.052;2023-04-03T02:55:46;101303.72;;;0.11;65.46
65997;BME280;52765;52.258;21.052;2023-04-03T02:58:12;101305.75;;;0.05;65.47
65997;BME280;52765;52.258;21.052;2023-04-03T03:00:38;101310.22;;;0.04;66.05
65997;BME280;52765;52.258;21.052;2023-04-03T03:03:03;101302.44;;;-0.01;66.85
65997;BME280;52765;52.258;21.052;2023-04-03T03:05:29;101310.47;;;-0.02;65.98
65997;BME280;52765;52.258;21.052;2023-04-03T03:07:55;101315.81;;;-0.04;66.93
65997;BME280;52765;52.258;21.052;2023-04-03T03:10:21;101301.97;;;-0.10;67.43
65997;BME280;52765;52.258;21.052;2023-04-03T03:12:46;101313.53;;;-0.11;68.08
65997;BME280;52765;52.258;21.052;2023-04-03T03:15:12;101315.81;;;-0.24;67.89
65997;BME280;52765;52.258;21.052;2023-04-03T03:17:38;101306.19;;;-0.27;68.41
65997;BME280;52765;52.258;21.052;2023-04-03T03:20:04;101316.94;;;-0.30;68.33
65997;BME280;52765;52.258;21.052;2023-04-03T03:22:30;101319.38;;;-0.25;68.81
65997;BME280;52765;52.258;21.052;2023-04-03T03:24:56;101313.63;;;-0.35;68.74
65997;BME280;52765;52.258;21.052;2023-04-03T03:27:21;101314.41;;;-0.33;68.81
65997;BME280;52765;52.258;21.052;2023-04-03T03:29:53;101313.63;;;-0.35;69.31
65997;BME280;52765;52.258;21.052;2023-04-03T03:32:18;101315.84;;;-0.46;70.02
65997;BME280;52765;52.258;21.052;2023-04-03T03:34:44;101310.72;;;-0.51;70.63
65997;BME280;52765;52.258;21.052;2023-04-03T03:37:24;101304.69;;;-0.54;70.89
65997;BME280;52765;52.258;21.052;2023-04-03T03:39:53;101318.78;;;-0.54;70.66
65997;BME280;52765;52.258;21.052;2023-04-03T03:42:19;101318.22;;;-0.62;71.44
65997;BME280;52765;52.258;21.052;2023-04-03T03:44:44;101323.34;;;-0.58;71.44
65997;BME280;52765;52.258;21.052;2023-04-03T03:47:10;101321.63;;;-0.59;71.74
65997;BME280;52765;52.258;21.052;2023-04-03T03:49:36;101313.63;;;-0.57;71.78
65997;BME280;52765;52.258;21.052;2023-04-03T03:52:07;101304.94;;;-0.61;71.14
65997;BME280;52765;52.258;21.052;2023-04-03T03:54:36;101318.91;;;-0.57;71.48
65997;BME280;52765;52.258;21.052;2023-04-03T03:57:02;101316.19;;;-0.56;71.98
65997;BME280;52765;52.258;21.052;2023-04-03T03:59:29;101316.13;;;-0.54;71.21
65997;BME280;52765;52.258;21.052;2023-04-03T04:01:55;101329.56;;;-0.59;70.68
65997;BME280;52765;52.258;21.052;2023-04-03T04:04:20;101324.38;;;-0.62;71.56
65997;BME280;52765;52.258;21.052;2023-04-03T04:06:48;101333.03;;;-0.57;71.08
65997;BME280;52765;52.258;21.052;2023-04-03T04:09:14;101341.44;;;-0.47;71.20
65997;BME280;52765;52.258;21.052;2023-04-03T04:11:39;101324.13;;;-0.56;70.70
65997;BME280;52765;52.258;21.052;2023-04-03T04:14:06;101331.28;;;-0.58;71.18
65997;BME280;52765;52.258;21.052;2023-04-03T04:16:32;101337.19;;;-0.51;71.40
65997;BME280;52765;52.258;21.052;2023-04-03T04:18:57;101338.22;;;-0.55;71.70
65997;BME280;52765;52.258;21.052;2023-04-03T04:21:23;101341.63;;;-0.51;72.27
65997;BME280;52765;52.258;21.052;2023-04-03T04:23:48;101332.09;;;-0.56;71.67
65997;BME280;52765;52.258;21.052;2023-04-03T04:26:13;101335.59;;;-0.55;72.41
65997;BME280;52765;52.258;21.052;2023-04-03T04:28:42;101339.97;;;-0.54;72.01
65997;BME280;52765;52.258;21.052;2023-04-03T04:31:07;101348.19;;;-0.62;71.78
65997;BME280;52765;52.258;21.052;2023-04-03T04:33:33;101346.44;;;-0.61;71.46
65997;BME280;52765;52.258;21.052;2023-04-03T04:35:58;101348.03;;;-0.57;71.75
65997;BME280;52765;52.258;21.052;2023-04-03T04:38:24;101358.56;;;-0.56;72.60
65997;BME280;52765;52.258;21.052;2023-04-03T04:40:50;101359.50;;;-0.57;71.61
65997;BME280;52765;52.258;21.052;2023-04-03T04:43:16;101355.97;;;-0.57;72.51
65997;BME280;52765;52.258;21.052;2023-04-03T04:45:41;101364.53;;;-0.50;72.51
65997;BME280;52765;52.258;21.052;2023-04-03T04:48:07;101372.41;;;-0.49;71.94
65997;BME280;52765;52.258;21.052;2023-04-03T04:50:32;101368.84;;;-0.48;71.48
65997;BME280;52765;52.258;21.052;2023-04-03T04:53:00;101375.78;;;-0.45;71.64
65997;BME280;52765;52.258;21.052;2023-04-03T04:55:25;101377.28;;;-0.38;70.92
65997;BME280;52765;52.258;21.052;2023-04-03T04:57:50;101384.06;;;-0.31;69.94
65997;BME280;52765;52.258;21.052;2023-04-03T05:00:18;101370.25;;;-0.39;70.85
65997;BME280;52765;52.258;21.052;2023-04-03T05:02:43;101385.78;;;-0.30;70.63
65997;BME280;52765;52.258;21.052;2023-04-03T05:05:09;101381.47;;;-0.32;70.49
65997;BME280;52765;52.258;21.052;2023-04-03T05:07:34;101392.91;;;-0.32;70.03
65997;BME280;52765;52.258;21.052;2023-04-03T05:10:01;101380.84;;;-0.39;69.66
65997;BME280;52765;52.258;21.052;2023-04-03T05:12:27;101398.19;;;-0.54;71.01
65997;BME280;52765;52.258;21.052;2023-04-03T05:14:53;101396.84;;;-0.42;70.55
65997;BME280;52765;52.258;21.052;2023-04-03T05:17:18;101402.53;;;-0.29;70.42
65997;BME280;52765;52.258;21.052;2023-04-03T05:19:44;101397.66;;;-0.18;69.52
65997;BME280;52765;52.258;21.052;2023-04-03T05:22:10;101393.41;;;-0.22;69.38
65997;BME280;52765;52.258;21.052;2023-04-03T05:24:35;101390.94;;;-0.27;69.15
65997;BME280;52765;52.258;21.052;2023-04-03T05:27:01;101393.47;;;-0.24;69.09
65997;BME280;52765;52.258;21.052;2023-04-03T05:29:26;101404.50;;;-0.12;68.55
65997;BME280;52765;52.258;21.052;2023-04-03T05:31:52;101412.38;;;-0.11;68.20
65997;BME280;52765;52.258;21.052;2023-04-03T05:34:18;101408.66;;;-0.07;67.93
65997;BME280;52765;52.258;21.052;2023-04-03T05:36:43;101411.13;;;-0.02;67.60
65997;BME280;52765;52.258;21.052;2023-04-03T05:39:09;101422.00;;;-0.08;66.80
65997;BME280;52765;52.258;21.052;2023-04-03T05:41:34;101423.59;;;-0.04;66.96
65997;BME280;52765;52.258;21.052;2023-04-03T05:43:59;101425.19;;;0.00;66.96
65997;BME280;52765;52.258;21.052;2023-04-03T05:46:25;101433.81;;;0.05;66.53
65997;BME280;52765;52.258;21.052;2023-04-03T05:48:51;101427.91;;;-0.02;67.62
65997;BME280;52765;52.258;21.052;2023-04-03T05:51:28;101421.53;;;0.03;66.47
65997;BME280;52765;52.258;21.052;2023-04-03T05:54:24;101433.31;;;-0.05;66.72
65997;BME280;52765;52.258;21.052;2023-04-03T05:56:51;101447.00;;;-0.15;67.04
65997;BME280;52765;52.258;21.052;2023-04-03T05:59:17;101429.44;;;-0.18;66.99
65997;BME280;52765;52.258;21.052;2023-04-03T06:01:43;101455.19;;;-0.22;67.01
65997;BME280;52765;52.258;21.052;2023-04-03T06:04:09;101427.09;;;-0.26;67.18
65997;BME280;52765;52.258;21.052;2023-04-03T06:06:50;101435.09;;;-0.27;67.97
65997;BME280;52765;52.258;21.052;2023-04-03T06:09:17;101435.09;;;-0.27;68.36
65997;BME280;52765;52.258;21.052;2023-04-03T06:11:43;101442.47;;;-0.13;68.17
65997;BME280;52765;52.258;21.052;2023-04-03T06:14:12;101451.56;;;-0.19;67.61
65997;BME280;52765;52.258;21.052;2023-04-03T06:16:38;101433.69;;;-0.14;67.37
65997;BME280;52765;52.258;21.052;2023-04-03T06:19:05;101433.44;;;-0.08;67.19
65997;BME280;52765;52.258;21.052;2023-04-03T06:21:31;101438.75;;;-0.08;66.82
65997;BME280;52765;52.258;21.052;2023-04-03T06:23:57;101436.59;;;0.02;66.71
65997;BME280;52765;52.258;21.052;2023-04-03T06:26:25;101444.41;;;0.05;67.10
65997;BME280;52765;52.258;21.052;2023-04-03T06:28:51;101463.63;;;0.10;66.78
65997;BME280;52765;52.258;21.052;2023-04-03T06:31:16;101456.66;;;0.08;65.60
65997;BME280;52765;52.258;21.052;2023-04-03T06:33:42;101464.66;;;0.06;65.66
65997;BME280;52765;52.258;21.052;2023-04-03T06:36:10;101465.47;;;0.08;65.38
65997;BME280;52765;52.258;21.052;2023-04-03T06:38:35;101463.25;;;0.20;65.35
65997;BME280;52765;52.258;21.052;2023-04-03T06:41:01;101460.22;;;0.29;65.60
65997;BME280;52765;52.258;21.052;2023-04-03T06:43:26;101461.19;;;0.48;64.93
65997;BME280;52765;52.258;21.052;2023-04-03T06:45:52;101463.44;;;0.58;64.51
65997;BME280;52765;52.258;21.052;2023-04-03T06:48:18;101473.91;;;0.61;64.19
65997;BME280;52765;52.258;21.052;2023-04-03T06:50:43;101467.94;;;0.55;63.20
65997;BME280;52765;52.258;21.052;2023-04-03T06:53:09;101469.81;;;0.53;63.70
65997;BME280;52765;52.258;21.052;2023-04-03T06:55:36;101474.72;;;0.63;63.50
65997;BME280;52765;52.258;21.052;2023-04-03T06:58:04;101470.13;;;0.66;63.08
65997;BME280;52765;52.258;21.052;2023-04-03T07:00:30;101471.00;;;0.67;63.17
65997;BME280;52765;52.258;21.052;2023-04-03T07:02:56;101470.34;;;0.62;62.65
65997;BME280;52765;52.258;21.052;2023-04-03T07:05:23;101466.63;;;0.66;62.72
65997;BME280;52765;52.258;21.052;2023-04-03T07:07:48;101477.50;;;0.80;62.86
65997;BME280;52765;52.258;21.052;2023-04-03T07:10:15;101470.81;;;0.92;62.10
65997;BME280;52765;52.258;21.052;2023-04-03T07:12:41;101476.00;;;1.14;62.62
65997;BME280;52765;52.258;21.052;2023-04-03T07:15:07;101476.66;;;1.19;62.28
65997;BME280;52765;52.258;21.052;2023-04-03T07:17:33;101488.78;;;1.25;60.78
65997;BME280;52765;52.258;21.052;2023-04-03T07:19:59;101491.19;;;1.31;60.82
65997;BME280;52765;52.258;21.052;2023-04-03T07:22:24;101479.56;;;1.34;59.80
65997;BME280;52765;52.258;21.052;2023-04-03T07:24:50;101485.16;;;1.46;59.30
65997;BME280;52765;52.258;21.052;2023-04-03T07:27:15;101485.09;;;1.48;59.72
65997;BME280;52765;52.258;21.052;2023-04-03T07:29:43;101489.47;;;1.49;59.70
65997;BME280;52765;52.258;21.052;2023-04-03T07:32:10;101499.38;;;1.64;59.17
65997;BME280;52765;52.258;21.052;2023-04-03T07:34:36;101498.59;;;1.62;57.84
65997;BME280;52765;52.258;21.052;2023-04-03T07:37:02;101510.16;;;1.61;57.68
65997;BME280;52765;52.258;21.052;2023-04-03T07:39:28;101504.84;;;1.61;57.27
65997;BME280;52765;52.258;21.052;2023-04-03T07:41:54;101503.72;;;1.67;56.47
65997;BME280;52765;52.258;21.052;2023-04-03T07:44:21;101509.16;;;1.64;56.93
65997;BME280;52765;52.258;21.052;2023-04-03T07:46:47;101500.34;;;1.82;57.04
65997;BME280;52765;52.258;21.052;2023-04-03T07:49:14;101499.66;;;1.96;56.91
65997;BME280;52765;52.258;21.052;2023-04-03T07:51:39;101495.66;;;2.07;55.38
65997;BME280;52765;52.258;21.052;2023-04-03T07:54:06;101504.59;;;2.23;54.45
65997;BME280;52765;52.258;21.052;2023-04-03T07:56:31;101497.28;;;2.28;54.02
65997;BME280;52765;52.258;21.052;2023-04-03T07:58:57;101509.25;;;2.18;54.49
65997;BME280;52765;52.258;21.052;2023-04-03T08:01:22;101510.16;;;2.18;52.23
65997;BME280;52765;52.258;21.052;2023-04-03T08:03:48;101507.41;;;2.20;51.50
65997;BME280;52765;52.258;21.052;2023-04-03T08:06:13;101503.88;;;2.19;51.47
65997;BME280;52765;52.258;21.052;2023-04-03T08:08:40;101503.38;;;2.11;50.61
65997;BME280;52765;52.258;21.052;2023-04-03T08:11:06;101512.75;;;2.20;49.63
65997;BME280;52765;52.258;21.052;2023-04-03T08:13:33;101502.31;;;2.15;49.57
65997;BME280;52765;52.258;21.052;2023-04-03T08:16:08;101505.53;;;2.22;50.07
65997;BME280;52765;52.258;21.052;2023-04-03T08:18:33;101496.47;;;2.26;51.01
65997;BME280;52765;52.258;21.052;2023-04-03T08:20:58;101494.75;;;2.25;50.16
65997;BME280;52765;52.258;21.052;2023-04-03T08:23:24;101511.41;;;2.29;50.96
65997;BME280;52765;52.258;21.052;2023-04-03T08:25:50;101493.22;;;2.38;49.30
65997;BME280;52765;52.258;21.052;2023-04-03T08:28:16;101511.75;;;2.57;48.68
65997;BME280;52765;52.258;21.052;2023-04-03T08:30:43;101510.50;;;2.65;48.20
65997;BME280;52765;52.258;21.052;2023-04-03T08:33:09;101505.13;;;2.84;47.89
65997;BME280;52765;52.258;21.052;2023-04-03T08:35:43;101503.47;;;2.99;47.96
65997;BME280;52765;52.258;21.052;2023-04-03T08:38:11;101498.22;;;2.97;47.57
65997;BME280;52765;52.258;21.052;2023-04-03T08:40:45;101506.25;;;3.13;47.98
65997;BME280;52765;52.258;21.052;2023-04-03T08:45:55;101517.44;;;3.20;46.61
65997;BME280;52765;52.258;21.052;2023-04-03T08:48:35;101518.41;;;3.01;46.19
65997;BME280;52765;52.258;21.052;2023-04-03T08:51:15;101506.84;;;2.85;46.46
65997;BME280;52765;52.258;21.052;2023-04-03T08:53:53;101508.56;;;3.03;46.20
65997;BME280;52765;52.258;21.052;2023-04-03T08:56:24;101518.03;;;3.09;46.49
65997;BME280;52765;52.258;21.052;2023-04-03T08:59:00;101512.31;;;3.17;46.14
65997;BME280;52765;52.258;21.052;2023-04-03T09:01:38;101507.31;;;3.44;46.87
65997;BME280;52765;52.258;21.052;2023-04-03T09:04:14;101514.44;;;3.43;45.58
65997;BME280;52765;52.258;21.052;2023-04-03T09:06:52;101505.72;;;3.24;44.78
65997;BME280;52765;52.258;21.052;2023-04-03T09:20:24;101506.41;;;3.93;43.66
65997;BME280;52765;52.258;21.052;2023-04-03T09:22:52;101512.53;;;3.95;42.63
65997;BME280;52765;52.258;21.052;2023-04-03T09:25:35;101522.50;;;3.91;42.14
65997;BME280;52765;52.258;21.052;2023-04-03T09:28:03;101519.41;;;3.99;42.50
65997;BME280;52765;52.258;21.052;2023-04-03T09:30:29;101512.09;;;4.18;41.45
65997;BME280;52765;52.258;21.052;2023-04-03T09:32:56;101509.06;;;4.24;40.30
65997;BME280;52765;52.258;21.052;2023-04-03T09:35:32;101524.31;;;4.06;40.52
65997;BME280;52765;52.258;21.052;2023-04-03T09:38:16;101515.72;;;4.17;41.12
65997;BME280;52765;52.258;21.052;2023-04-03T09:40:44;101504.75;;;4.38;40.78
65997;BME280;52765;52.258;21.052;2023-04-03T09:45:43;101512.28;;;4.61;39.35
65997;BME280;52765;52.258;21.052;2023-04-03T09:55:50;101500.47;;;4.35;40.00
65997;BME280;52765;52.258;21.052;2023-04-03T09:58:25;101512.28;;;4.15;40.22
65997;BME280;52765;52.258;21.052;2023-04-03T10:01:05;101523.38;;;4.23;40.48
65997;BME280;52765;52.258;21.052;2023-04-03T10:03:34;101511.81;;;4.39;40.99
65997;BME280;52765;52.258;21.052;2023-04-03T10:06:02;101533.00;;;4.42;40.67
65997;BME280;52765;52.258;21.052;2023-04-03T10:13:32;101530.09;;;4.61;40.09
65997;BME280;52765;52.258;21.052;2023-04-03T10:16:07;101521.91;;;4.64;39.31
65997;BME280;52765;52.258;21.052;2023-04-03T10:18:49;101516.75;;;4.61;40.13
65997;BME280;52765;52.258;21.052;2023-04-03T10:21:40;101525.91;;;4.57;39.67
65997;BME280;52765;52.258;21.052;2023-04-03T10:33:08;101515.28;;;5.88;37.92
65997;BME280;52765;52.258;21.052;2023-04-03T10:41:38;101513.28;;;5.34;38.66
65997;BME280;52765;52.258;21.052;2023-04-03T10:47:09;101506.91;;;4.77;40.03
65997;BME280;52765;52.258;21.052;2023-04-03T10:49:55;101498.31;;;5.31;40.52
65997;BME280;52765;52.258;21.052;2023-04-03T10:52:32;101518.13;;;5.13;39.70
65997;BME280;52765;52.258;21.052;2023-04-03T10:57:47;101508.97;;;4.72;40.16
65997;BME280;52765;52.258;21.052;2023-04-03T11:00:18;101507.13;;;4.58;40.68
65997;BME280;52765;52.258;21.052;2023-04-03T11:02:54;101509.94;;;5.02;40.02
65997;BME280;52765;52.258;21.052;2023-04-03T11:05:32;101511.22;;;4.94;39.89
65997;BME280;52765;52.258;21.052;2023-04-03T11:08:26;101515.28;;;5.16;39.79
65997;BME280;52765;52.258;21.052;2023-04-03T11:10:51;101491.41;;;5.56;39.04
65997;BME280;52765;52.258;21.052;2023-04-03T11:13:26;101492.47;;;5.97;39.37
65997;BME280;52765;52.258;21.052;2023-04-03T11:15:56;101501.06;;;5.73;39.66
65997;BME280;52765;52.258;21.052;2023-04-03T11:18:27;101507.09;;;5.48;40.05
65997;BME280;52765;52.258;21.052;2023-04-03T11:21:09;101514.53;;;5.28;39.52
65997;BME280;52765;52.258;21.052;2023-04-03T11:23:40;101508.03;;;5.61;39.21
65997;BME280;52765;52.258;21.052;2023-04-03T11:26:12;101503.72;;;6.02;38.78
65997;BME280;52765;52.258;21.052;2023-04-03T11:28:39;101492.94;;;6.03;38.53
65997;BME280;52765;52.258;21.052;2023-04-03T11:33:51;101497.09;;;5.51;38.94
65997;BME280;52765;52.258;21.052;2023-04-03T11:36:39;101497.25;;;5.77;38.95
65997;BME280;52765;52.258;21.052;2023-04-03T11:39:29;101494.50;;;6.20;38.26
65997;BME280;52765;52.258;21.052;2023-04-03T11:42:13;101483.94;;;6.04;37.95
65997;BME280;52765;52.258;21.052;2023-04-03T11:44:40;101467.47;;;5.69;38.42
65997;BME280;52765;52.258;21.052;2023-04-03T11:47:08;101498.31;;;5.46;37.81
65997;BME280;52765;52.258;21.052;2023-04-03T12:08:45;101467.38;;;7.05;35.03
65997;BME280;52765;52.258;21.052;2023-04-03T12:27:40;101484.84;;;6.45;35.91
65997;BME280;52765;52.258;21.052;2023-04-03T12:30:00;101482.88;;;5.92;35.51
65997;BME280;52765;52.258;21.052;2023-04-03T12:32:46;101487.19;;;6.37;35.44
65997;BME280;52765;52.258;21.052;2023-04-03T12:35:34;101477.13;;;7.32;34.03
65997;BME280;52765;52.258;21.052;2023-04-03T12:43:46;101478.44;;;7.26;34.83
65997;BME280;52765;52.258;21.052;2023-04-03T12:46:18;101470.25;;;7.28;34.74
65997;BME280;52765;52.258;21.052;2023-04-03T12:51:14;101474.00;;;6.74;36.45
65997;BME280;52765;52.258;21.052;2023-04-03T12:53:40;101472.59;;;6.81;36.11
65997;BME280;52765;52.258;21.052;2023-04-03T12:56:28;101477.94;;;6.68;36.91
65997;BME280;52765;52.258;21.052;2023-04-03T12:58:56;101466.97;;;6.45;36.73
65997;BME280;52765;52.258;21.052;2023-04-03T13:01:37;101480.13;;;7.40;35.67
65997;BME280;52765;52.258;21.052;2023-04-03T13:04:03;101475.00;;;7.87;34.00
65997;BME280;52765;52.258;21.052;2023-04-03T13:06:42;101468.59;;;7.76;34.74
65997;BME280;52765;52.258;21.052;2023-04-03T13:09:21;101469.63;;;7.24;33.61
65997;BME280;52765;52.258;21.052;2023-04-03T13:11:49;101469.63;;;7.50;33.67
65997;BME280;52765;52.258;21.052;2023-04-03T13:14:25;101472.06;;;8.03;33.36
65997;BME280;52765;52.258;21.052;2023-04-03T13:16:59;101472.25;;;7.63;34.29
65997;BME280;52765;52.258;21.052;2023-04-03T13:19:29;101469.84;;;7.21;34.95
65997;BME280;52765;52.258;21.052;2023-04-03T13:22:00;101474.13;;;6.98;36.38
65997;BME280;52765;52.258;21.052;2023-04-03T13:24:27;101473.81;;;6.90;36.42
65997;BME280;52765;52.258;21.052;2023-04-03T13:26:54;101467.13;;;6.82;36.14
65997;BME280;52765;52.258;21.052;2023-04-03T13:29:32;101479.47;;;7.11;35.25
65997;BME280;52765;52.258;21.052;2023-04-03T13:32:00;101464.28;;;6.98;35.04
65997;BME280;52765;52.258;21.052;2023-04-03T13:34:29;101457.50;;;6.80;36.08
65997;BME280;52765;52.258;21.052;2023-04-03T13:37:01;101461.25;;;6.64;36.40
65997;BME280;52765;52.258;21.052;2023-04-03T13:39:34;101469.88;;;6.55;36.83
65997;BME280;52765;52.258;21.052;2023-04-03T13:42:27;101472.16;;;6.34;37.74
65997;BME280;52765;52.258;21.052;2023-04-03T13:45:23;101469.09;;;6.40;36.87
65997;BME280;52765;52.258;21.052;2023-04-03T13:47:53;101458.13;;;6.58;36.80
65997;BME280;52765;52.258;21.052;2023-04-03T13:50:25;101467.25;;;6.68;36.16
65997;BME280;52765;52.258;21.052;2023-04-03T13:53:11;101471.81;;;6.66;36.05
65997;BME280;52765;52.258;21.052;2023-04-03T13:58:28;101473.84;;;6.50;36.47
65997;BME280;52765;52.258;21.052;2023-04-03T14:01:00;101465.47;;;6.54;36.63
65997;BME280;52765;52.258;21.052;2023-04-03T14:03:30;101469.28;;;6.37;36.44
65997;BME280;52765;52.258;21.052;2023-04-03T14:05:56;101474.69;;;6.50;37.13
65997;BME280;52765;52.258;21.052;2023-04-03T14:08:22;101468.88;;;7.22;35.05
65997;BME280;52765;52.258;21.052;2023-04-03T14:10:48;101470.03;;;7.44;34.62
65997;BME280;52765;52.258;21.052;2023-04-03T14:13:16;101470.56;;;7.49;34.33
65997;BME280;52765;52.258;21.052;2023-04-03T14:15:42;101458.16;;;7.22;34.63
65997;BME280;52765;52.258;21.052;2023-04-03T14:18:18;101465.13;;;6.99;35.66
65997;BME280;52765;52.258;21.052;2023-04-03T14:20:44;101454.06;;;6.65;36.37
65997;BME280;52765;52.258;21.052;2023-04-03T14:23:19;101449.22;;;7.34;34.51
65997;BME280;52765;52.258;21.052;2023-04-03T14:25:45;101454.34;;;8.24;33.08
65997;BME280;52765;52.258;21.052;2023-04-03T14:28:45;101441.84;;;8.12;32.91
65997;BME280;52765;52.258;21.052;2023-04-03T14:31:14;101443.44;;;7.53;34.28
65997;BME280;52765;52.258;21.052;2023-04-03T14:33:42;101457.84;;;7.39;34.73
65997;BME280;52765;52.258;21.052;2023-04-03T14:36:30;101463.44;;;6.98;35.00
65997;BME280;52765;52.258;21.052;2023-04-03T14:38:56;101461.25;;;6.64;35.67
65997;BME280;52765;52.258;21.052;2023-04-03T14:41:25;101458.09;;;6.45;35.94